Time;durP1;ratioP1;P1;durP2;ratioP2;P2;SDS_P1;SDS_P2;PMS_P1;PMS_P2;Temp;Humidity;BMP_temperature;BMP_pressure;BME280_temperature;BME280_humidity;BME280_pressure;Samples;Min_cycle;Max_cycle;Signal;HPM_P1;HPM_P2
2023/04/11 06:37:02;;;;;;;;;;;19.20;65.20;;;;;;6105948;22;3851097;-77
2023/04/11 06:39:29;;;;;;;;;;;19.10;65.10;;;;;;6187883;23;19935;-77
2023/04/11 06:41:56;;;;;;;;;;;19.20;64.40;;;;;;6187836;23;19904;-78
2023/04/11 06:44:25;;;;;;;;;;;19.20;65.10;;;;;;6188578;23;19904;-78
2023/04/11 06:46:51;;;;;;;;;;;19.10;65.70;;;;;;6213864;23;19983;-78
2023/04/11 06:49:18;;;;;;;;;;;19.10;65.30;;;;;;6188366;23;20038;-77
2023/04/11 06:51:50;;;;;;;;;;;19.10;65.20;;;;;;6214456;23;19904;-78
2023/04/11 06:54:17;;;;;;;;;;;19.20;64.30;;;;;;6214063;23;19904;-78
2023/04/11 06:56:44;;;;;;;;;;;19.20;61.30;;;;;;6214226;23;19915;-77
2023/04/11 06:59:11;;;;;;;;;;;19.30;60.20;;;;;;6188311;23;19939;-77
2023/04/11 07:01:38;;;;;;;;;;;19.20;60.20;;;;;;6214412;23;19908;-85
2023/04/11 07:04:05;;;;;;;;;;;19.20;60.00;;;;;;6213069;23;19942;-82
2023/04/11 07:06:34;;;;;;;;;;;19.30;59.40;;;;;;6210591;23;19915;-82
2023/04/11 07:09:03;;;;;;;;;;;19.20;59.30;;;;;;6185695;23;19916;-77
2023/04/11 07:11:30;;;;;;;;;;;19.20;59.70;;;;;;6211720;23;19904;-77
2023/04/11 07:13:57;;;;;;;;;;;19.10;60.30;;;;;;6211252;23;19911;-77
2023/04/11 07:16:25;;;;;;;;;;;19.00;60.80;;;;;;6211614;23;19987;-78
2023/04/11 07:18:54;;;;;;;;;;;19.00;61.50;;;;;;6185895;23;19912;-81
2023/04/11 07:21:21;;;;;;;;;;;19.00;60.50;;;;;;6210237;23;20327;-78
2023/04/11 07:23:47;;;;;;;;;;;19.00;60.70;;;;;;6210997;23;19908;-86
2023/04/11 07:26:15;;;;;;;;;;;19.00;61.10;;;;;;6186189;23;19915;-78
2023/04/11 07:28:43;;;;;;;;;;;18.90;61.00;;;;;;6212404;23;19907;-87
2023/04/11 07:31:11;;;;;;;;;;;18.90;61.40;;;;;;6184811;23;20346;-78
2023/04/11 07:33:37;;;;;;;;;;;18.80;61.80;;;;;;6210227;23;19908;-79
2023/04/11 07:36:05;;;;;;;;;;;18.80;62.10;;;;;;6184959;23;19947;-79
2023/04/11 07:38:32;;;;;;;;;;;18.80;62.60;;;;;;6210309;23;20232;-79
2023/04/11 07:40:59;;;;;;;;;;;18.80;63.20;;;;;;6185132;23;19982;-79
2023/04/11 07:43:26;;;;;;;;;;;18.70;63.80;;;;;;6211179;23;20208;-80
2023/04/11 07:45:53;;;;;;;;;;;18.80;64.10;;;;;;6210939;23;19908;-79
2023/04/11 07:48:23;;;;;;;;;;;18.70;64.60;;;;;;6208318;23;20393;-77
2023/04/11 07:50:50;;;;;;;;;;;18.70;65.20;;;;;;6210812;23;19904;-80
2023/04/11 07:53:16;;;;;;;;;;;18.70;65.30;;;;;;6211041;23;19914;-77
2023/04/11 07:55:43;;;;;;;;;;;18.70;65.50;;;;;;6210638;23;19920;-78
2023/04/11 07:58:10;;;;;;;;;;;18.70;65.60;;;;;;6183438;23;19912;-79
2023/04/11 08:00:37;;;;;;;;;;;18.70;66.40;;;;;;6210797;23;19908;-77
2023/04/11 08:03:07;;;;;;;;;;;18.70;66.90;;;;;;6210998;23;19912;-79
2023/04/11 08:05:34;;;;;;;;;;;18.60;67.80;;;;;;6211546;23;19951;-78
2023/04/11 08:08:01;;;;;;;;;;;18.60;68.00;;;;;;6211650;23;19903;-83
2023/04/11 08:10:28;;;;;;;;;;;18.60;68.00;;;;;;6185327;23;19908;-82
2023/04/11 08:12:55;;;;;;;;;;;18.60;68.10;;;;;;6210903;23;19962;-82
2023/04/11 08:15:22;;;;;;;;;;;18.50;69.00;;;;;;6184768;23;20003;-80
2023/04/11 08:17:55;;;;;;;;;;;18.50;68.50;;;;;;6183964;23;19915;-83
2023/04/11 08:20:22;;;;;;;;;;;18.50;68.80;;;;;;6184557;23;19911;-81
2023/04/11 08:22:48;;;;;;;;;;;18.40;68.90;;;;;;6211503;23;19908;-82
2023/04/11 08:25:18;;;;;;;;;;;18.40;69.00;;;;;;6184869;23;20220;-82
2023/04/11 08:27:45;;;;;;;;;;;18.40;69.10;;;;;;6184527;23;20312;-82
2023/04/11 08:30:12;;;;;;;;;;;18.40;68.70;;;;;;6212885;23;19916;-78
2023/04/11 08:32:39;;;;;;;;;;;18.40;68.60;;;;;;6213163;23;20243;-79
2023/04/11 08:35:06;;;;;;;;;;;18.40;68.80;;;;;;6212257;23;19916;-82
2023/04/11 08:37:33;;;;;;;;;;;18.30;69.20;;;;;;6161749;23;20470;-80
2023/04/11 08:40:00;;;;;;;;;;;18.30;69.60;;;;;;6213346;23;19908;-81
2023/04/11 08:42:30;;;;;;;;;;;18.30;69.40;;;;;;6212515;23;20251;-84
2023/04/11 08:45:00;;;;;;;;;;;18.20;69.60;;;;;;6213375;23;20238;-84
2023/04/11 08:47:26;;;;;;;;;;;18.20;69.70;;;;;;6183812;23;19908;-81
2023/04/11 08:49:53;;;;;;;;;;;18.20;69.70;;;;;;6213419;23;19911;-78
2023/04/11 08:52:20;;;;;;;;;;;18.20;69.60;;;;;;6187207;23;19958;-78
2023/04/11 08:54:47;;;;;;;;;;;18.20;69.50;;;;;;6211710;23;19912;-83
2023/04/11 08:57:20;;;;;;;;;;;18.20;69.60;;;;;;6185754;23;20323;-81
2023/04/11 08:59:52;;;;;;;;;;;18.10;69.40;;;;;;6213148;23;19947;-82
2023/04/11 09:02:19;;;;;;;;;;;18.10;69.40;;;;;;6216088;23;19983;-88
2023/04/11 09:04:46;;;;;;;;;;;18.10;69.30;;;;;;6214355;23;20235;-90
2023/04/11 09:07:14;;;;;;;;;;;18.10;69.40;;;;;;6212023;23;20014;-87
2023/04/11 09:09:42;;;;;;;;;;;18.10;69.30;;;;;;6212792;23;20003;-80
2023/04/11 09:12:09;;;;;;;;;;;18.10;69.40;;;;;;6212669;23;19935;-81
2023/04/11 09:14:36;;;;;;;;;;;18.10;69.80;;;;;;6212821;23;19931;-88
2023/04/11 09:17:03;;;;;;;;;;;18.10;69.80;;;;;;6212341;23;19920;-82
2023/04/11 09:19:31;;;;;;;;;;;18.10;70.10;;;;;;6190236;23;19912;-85
2023/04/11 09:22:01;;;;;;;;;;;18.10;69.90;;;;;;6188984;23;19938;-89
2023/04/11 09:24:30;;;;;;;;;;;18.00;70.10;;;;;;6187344;23;20617;-87
2023/04/11 09:27:12;;;;;;;;;;;18.00;70.70;;;;;;6213727;23;19907;-76
2023/04/11 09:29:46;;;;;;;;;;;18.00;70.60;;;;;;6213193;23;19914;-81
2023/04/11 09:32:28;;;;;;;;;;;18.00;70.90;;;;;;6211307;23;19907;-73
2023/04/11 09:35:08;;;;;;;;;;;17.90;71.20;;;;;;6212640;23;20007;-73
2023/04/11 09:37:42;;;;;;;;;;;17.90;70.90;;;;;;6211631;23;19919;-73
2023/04/11 09:40:10;;;;;;;;;;;17.90;71.10;;;;;;6212360;23;19916;-74
2023/04/11 09:42:37;;;;;;;;;;;17.90;71.00;;;;;;6212833;23;20592;-74
2023/04/11 09:45:04;;;;;;;;;;;17.90;71.00;;;;;;6213033;23;19908;-74
2023/04/11 09:47:33;;;;;;;;;;;17.90;70.70;;;;;;6182981;23;19979;-74
2023/04/11 09:50:00;;;;;;;;;;;17.90;70.70;;;;;;6160729;23;19908;-74
2023/04/11 09:52:27;;;;;;;;;;;17.90;70.60;;;;;;6212910;23;19908;-74
2023/04/11 10:55:21;;;;;;;;;;;17.60;72.80;;;;;;6263387;22;19932;-77
2023/04/11 10:58:07;;;;;;;;;;;17.50;72.90;;;;;;6271948;22;19918;-73
2023/04/11 11:00:49;;;;;;;;;;;17.50;72.80;;;;;;6272121;22;19915;-73
2023/04/11 11:03:16;;;;;;;;;;;17.50;72.90;;;;;;6272031;22;19907;-73
2023/04/11 11:05:42;;;;;;;;;;;17.50;72.80;;;;;;6272088;22;19923;-73
2023/04/11 11:08:09;;;;;;;;;;;17.40;73.00;;;;;;6272213;22;19907;-73
2023/04/11 11:10:44;;;;;;;;;;;17.50;73.00;;;;;;6272533;22;20245;-73
2023/04/11 11:13:13;;;;;;;;;;;17.40;73.00;;;;;;6272725;22;19907;-79
2023/04/11 11:15:44;;;;;;;;;;;17.40;73.00;;;;;;6244590;22;19994;-78
2023/04/11 11:18:11;;;;;;;;;;;17.40;73.20;;;;;;6245439;22;19907;-78
2023/04/11 11:20:38;;;;;;;;;;;17.40;73.40;;;;;;6245294;22;20337;-78
2023/04/11 11:23:08;;;;;;;;;;;17.40;73.40;;;;;;6272203;22;20269;-77
2023/04/11 11:25:35;;;;;;;;;;;17.40;73.40;;;;;;6272656;22;19907;-80
2023/04/11 11:28:03;;;;;;;;;;;17.30;73.50;;;;;;6272100;22;19918;-77
2023/04/11 11:30:30;;;;;;;;;;;17.30;73.70;;;;;;6271305;22;19911;-76
2023/04/11 11:32:57;;;;;;;;;;;17.40;73.70;;;;;;6245557;22;19908;-75
2023/04/11 11:35:24;;;;;;;;;;;17.30;73.90;;;;;;6272232;22;20511;-76
2023/04/11 11:37:53;;;;;;;;;;;17.30;73.90;;;;;;6271646;22;20393;-77
2023/04/11 11:40:23;;;;;;;;;;;17.30;74.20;;;;;;6245015;22;20229;-76
2023/04/11 11:42:50;;;;;;;;;;;17.30;74.40;;;;;;6271709;22;19919;-78
2023/04/11 11:45:17;;;;;;;;;;;17.30;74.50;;;;;;6245140;22;19937;-75
2023/04/11 11:47:48;;;;;;;;;;;17.30;74.60;;;;;;6270529;22;19934;-74
2023/04/11 11:50:44;;;;;;;;;;;17.30;74.60;;;;;;6272165;22;20242;-73
2023/04/11 11:53:14;;;;;;;;;;;17.20;74.70;;;;;;6240060;22;20227;-74
2023/04/11 12:04:56;;;;;;;;;;;17.20;74.90;;;;;;6275801;22;20345;-73
2023/04/11 12:07:23;;;;;;;;;;;17.20;75.10;;;;;;6250894;22;19957;-73
2023/04/11 12:09:55;;;;;;;;;;;17.10;75.20;;;;;;6277302;22;19965;-73
2023/04/11 12:12:22;;;;;;;;;;;17.20;75.40;;;;;;6251109;22;19910;-74
2023/04/11 12:14:54;;;;;;;;;;;17.10;75.50;;;;;;6277583;22;19910;-74
2023/04/11 12:17:21;;;;;;;;;;;17.10;75.60;;;;;;6276639;22;19911;-74
2023/04/11 12:19:48;;;;;;;;;;;17.20;75.60;;;;;;6250219;22;19903;-74
2023/04/11 12:22:15;;;;;;;;;;;17.10;75.80;;;;;;6277031;22;20322;-74
2023/04/11 12:24:41;;;;;;;;;;;17.10;75.70;;;;;;6277588;22;19909;-74
2023/04/11 12:27:08;;;;;;;;;;;17.10;75.80;;;;;;6277002;22;19913;-74
2023/04/11 12:29:35;;;;;;;;;;;17.10;75.90;;;;;;6277838;22;19907;-72
2023/04/11 12:32:02;;;;;;;;;;;17.10;75.90;;;;;;6275386;22;19919;-71
2023/04/11 12:34:29;;;;;;;;;;;17.10;76.20;;;;;;6276687;22;19908;-74
2023/04/11 12:36:56;;;;;;;;;;;17.10;76.40;;;;;;6276959;22;20014;-74
2023/04/11 12:39:23;;;;;;;;;;;17.00;76.50;;;;;;6277208;22;19904;-74
2023/04/11 12:41:50;;;;;;;;;;;17.00;76.60;;;;;;6277561;22;19930;-74
2023/04/11 12:44:17;;;;;;;;;;;17.00;76.60;;;;;;6277377;22;19903;-74
2023/04/11 12:46:43;;;;;;;;;;;17.00;76.50;;;;;;6276313;22;19930;-72
2023/04/11 12:49:10;;;;;;;;;;;17.00;76.30;;;;;;6276636;22;19907;-72
2023/04/11 12:51:37;;;;;;;;;;;17.00;76.30;;;;;;6276986;22;19907;-72
2023/04/11 12:54:03;;;;;;;;;;;16.90;76.00;;;;;;6276589;22;19907;-73
2023/04/11 12:56:31;;;;;;;;;;;16.90;76.00;;;;;;6276080;22;19918;-74
2023/04/11 12:58:58;;;;;;;;;;;16.90;75.90;;;;;;6276511;22;19903;-73
2023/04/11 13:01:25;;;;;;;;;;;16.90;75.70;;;;;;6277107;22;19907;-74
2023/04/11 13:03:51;;;;;;;;;;;16.90;75.90;;;;;;6276546;22;20353;-74
2023/04/11 13:06:18;;;;;;;;;;;16.90;75.70;;;;;;6276363;22;19903;-74
2023/04/11 13:08:45;;;;;;;;;;;16.90;76.00;;;;;;6276953;22;20314;-74
2023/04/11 13:11:12;;;;;;;;;;;16.80;76.00;;;;;;6276954;22;19913;-71
2023/04/11 13:13:39;;;;;;;;;;;16.80;75.90;;;;;;6276186;22;20393;-71
2023/04/11 13:16:07;;;;;;;;;;;16.80;75.90;;;;;;6275782;22;19919;-72
2023/04/11 13:18:34;;;;;;;;;;;16.70;76.00;;;;;;6248888;22;19931;-71
2023/04/11 13:21:00;;;;;;;;;;;16.80;76.30;;;;;;6276744;22;20416;-73
2023/04/11 13:23:27;;;;;;;;;;;16.70;76.10;;;;;;6277003;22;19914;-74
2023/04/11 13:25:54;;;;;;;;;;;16.70;76.10;;;;;;6276115;22;19982;-74
2023/04/11 13:28:20;;;;;;;;;;;16.70;76.30;;;;;;6276571;22;19933;-74
2023/04/11 13:30:47;;;;;;;;;;;16.70;76.30;;;;;;6276455;22;19934;-74
2023/04/11 15:03:30;;;;;;;;;;;15.90;78.00;;;;;;6240954;23;19983;-74
2023/04/11 15:05:56;;;;;;;;;;;15.90;77.80;;;;;;6214684;23;19920;-72
2023/04/11 15:08:23;;;;;;;;;;;15.90;78.40;;;;;;6214407;23;19908;-74
2023/04/11 15:10:52;;;;;;;;;;;15.90;78.30;;;;;;6215056;23;19915;-74
2023/04/11 15:13:20;;;;;;;;;;;15.90;78.10;;;;;;6214928;23;19914;-74
2023/04/11 15:15:47;;;;;;;;;;;15.90;78.50;;;;;;6188175;23;20007;-73
2023/04/11 15:18:23;;;;;;;;;;;15.90;78.40;;;;;;6214781;23;19903;-74
2023/04/11 15:20:51;;;;;;;;;;;15.90;78.30;;;;;;6163947;23;19904;-74
2023/04/11 15:23:18;;;;;;;;;;;15.90;78.00;;;;;;6188635;23;19959;-74
2023/04/11 15:25:55;;;;;;;;;;;15.80;77.90;;;;;;6214632;23;20271;-74
2023/04/11 15:28:22;;;;;;;;;;;15.80;78.60;;;;;;6215028;23;20023;-74
2023/04/11 15:30:49;;;;;;;;;;;15.80;78.10;;;;;;6214550;23;19931;-74
2023/04/11 15:33:16;;;;;;;;;;;15.80;78.30;;;;;;6215073;23;19904;-74
2023/04/11 15:35:43;;;;;;;;;;;15.70;78.40;;;;;;6188424;23;20342;-74
2023/04/11 15:38:10;;;;;;;;;;;15.70;78.70;;;;;;6163256;23;19923;-73
2023/04/11 15:40:37;;;;;;;;;;;15.70;78.50;;;;;;6188688;23;19904;-74
2023/04/11 15:43:03;;;;;;;;;;;15.60;78.70;;;;;;6188321;23;19904;-74
2023/04/11 15:45:30;;;;;;;;;;;15.60;79.00;;;;;;6188163;23;19904;-74
2023/04/11 15:47:57;;;;;;;;;;;15.60;78.60;;;;;;6214819;23;19904;-73
2023/04/11 15:50:24;;;;;;;;;;;15.60;78.50;;;;;;6214715;23;19904;-74
2023/04/11 15:52:51;;;;;;;;;;;15.60;78.30;;;;;;6214212;23;19908;-74
2023/04/11 15:55:17;;;;;;;;;;;15.60;78.70;;;;;;6214156;23;19911;-74
2023/04/11 15:57:44;;;;;;;;;;;15.60;78.40;;;;;;6214305;23;20350;-74
2023/04/11 16:00:12;;;;;;;;;;;15.70;78.30;;;;;;6214892;23;19983;-74
2023/04/11 16:02:42;;;;;;;;;;;15.70;78.60;;;;;;6215059;23;19950;-74
2023/04/11 16:05:09;;;;;;;;;;;15.70;78.50;;;;;;6230333;22;19950;-73
2023/04/11 16:07:35;;;;;;;;;;;15.70;78.60;;;;;;6275556;22;19903;-74
2023/04/11 16:10:02;;;;;;;;;;;15.70;78.30;;;;;;6274353;22;19907;-73
2023/04/11 16:12:29;;;;;;;;;;;15.60;78.10;;;;;;6275190;22;19914;-74
2023/04/11 16:14:56;;;;;;;;;;;15.60;77.90;;;;;;6275088;22;19903;-74
2023/04/11 16:17:22;;;;;;;;;;;15.70;77.70;;;;;;6275140;22;19915;-73
2023/04/11 16:19:50;;;;;;;;;;;15.60;77.90;;;;;;6274441;22;19927;-73
2023/04/11 16:22:17;;;;;;;;;;;15.60;78.20;;;;;;6222939;22;19908;-74
2023/04/11 16:24:43;;;;;;;;;;;15.60;78.00;;;;;;6248559;22;19907;-74
2023/04/11 16:27:10;;;;;;;;;;;15.50;78.00;;;;;;6275475;22;19911;-74
2023/04/11 16:29:37;;;;;;;;;;;15.60;77.80;;;;;;6275852;22;20335;-74
2023/04/11 16:32:03;;;;;;;;;;;15.50;77.50;;;;;;6275829;22;19951;-75
2023/04/11 16:34:30;;;;;;;;;;;15.50;77.80;;;;;;6275557;22;19910;-74
2023/04/11 16:36:57;;;;;;;;;;;15.50;78.20;;;;;;6275334;22;19918;-74
2023/04/11 16:39:24;;;;;;;;;;;15.50;78.40;;;;;;6275513;22;20036;-74
2023/04/11 16:41:50;;;;;;;;;;;15.50;78.50;;;;;;6248248;22;19982;-74
2023/04/11 16:44:17;;;;;;;;;;;15.40;78.80;;;;;;6275672;22;20336;-74
2023/04/11 16:46:44;;;;;;;;;;;15.40;78.70;;;;;;6274840;22;19990;-74
2023/04/11 16:49:10;;;;;;;;;;;15.40;79.10;;;;;;6248380;22;19942;-74
2023/04/11 16:51:37;;;;;;;;;;;15.30;79.10;;;;;;6249417;22;19903;-74
2023/04/11 16:54:08;;;;;;;;;;;15.40;79.00;;;;;;6277205;22;19904;-74
2023/04/11 16:56:35;;;;;;;;;;;15.30;79.00;;;;;;6277037;22;19912;-74
2023/04/11 16:59:03;;;;;;;;;;;15.30;78.80;;;;;;6250182;22;19910;-74
2023/04/11 17:01:30;;;;;;;;;;;15.30;78.90;;;;;;6277541;22;19903;-74
2023/04/11 17:03:57;;;;;;;;;;;15.30;78.60;;;;;;6277351;22;20277;-74
2023/04/11 17:06:24;;;;;;;;;;;15.30;78.30;;;;;;6277104;22;19903;-75
2023/04/11 17:08:51;;;;;;;;;;;15.40;78.50;;;;;;6277253;22;19911;-74
2023/04/11 17:11:18;;;;;;;;;;;15.40;78.60;;;;;;6277542;22;19903;-74
2023/04/11 17:13:46;;;;;;;;;;;15.40;78.50;;;;;;6277058;22;19911;-74
2023/04/11 17:16:13;;;;;;;;;;;15.40;78.60;;;;;;6248788;22;20335;-74
2023/04/11 17:18:40;;;;;;;;;;;15.40;78.70;;;;;;6277272;22;19938;-73
2023/04/11 17:21:07;;;;;;;;;;;15.40;78.80;;;;;;6250216;22;19923;-74
2023/04/11 17:23:33;;;;;;;;;;;15.40;78.90;;;;;;6276755;22;19903;-73
2023/04/11 17:26:00;;;;;;;;;;;15.30;79.10;;;;;;6276566;22;19903;-73
2023/04/11 17:28:27;;;;;;;;;;;15.40;79.00;;;;;;6276531;22;19907;-74
2023/04/11 17:30:54;;;;;;;;;;;15.40;79.00;;;;;;6276804;22;19908;-73
2023/04/11 17:33:23;;;;;;;;;;;15.30;78.90;;;;;;6277064;22;20432;-73
2023/04/11 17:35:53;;;;;;;;;;;15.30;78.80;;;;;;6276833;22;20274;-73
2023/04/11 17:38:20;;;;;;;;;;;15.30;78.60;;;;;;6251002;22;19910;-73
2023/04/11 17:40:47;;;;;;;;;;;15.30;78.80;;;;;;6276953;22;19907;-73
2023/04/11 17:43:13;;;;;;;;;;;15.30;79.00;;;;;;6249963;22;19912;-74
2023/04/11 17:45:42;;;;;;;;;;;15.30;79.10;;;;;;6276929;22;19903;-74
2023/04/11 17:48:08;;;;;;;;;;;15.20;79.10;;;;;;6276832;22;19915;-74
2023/04/11 17:50:36;;;;;;;;;;;15.30;79.30;;;;;;6276449;22;19903;-74
2023/04/11 17:53:03;;;;;;;;;;;15.20;79.30;;;;;;6276595;22;19904;-74
2023/04/11 17:55:30;;;;;;;;;;;15.20;79.30;;;;;;6276788;22;19911;-74
2023/04/11 17:57:57;;;;;;;;;;;15.20;79.30;;;;;;6276835;22;19903;-74
2023/04/11 18:00:25;;;;;;;;;;;15.20;79.40;;;;;;6276374;22;19918;-74
2023/04/11 18:02:57;;;;;;;;;;;15.20;79.50;;;;;;6275670;22;19973;-73
2023/04/11 18:05:28;;;;;;;;;;;15.20;79.90;;;;;;6276257;22;19949;-74
2023/04/11 18:07:58;;;;;;;;;;;15.20;80.00;;;;;;6276572;22;19907;-74
2023/04/11 18:10:28;;;;;;;;;;;15.10;79.70;;;;;;6249852;22;19911;-74
2023/04/11 18:12:55;;;;;;;;;;;15.10;79.70;;;;;;6248255;22;19997;-74
2023/04/11 18:15:22;;;;;;;;;;;15.10;80.00;;;;;;6275448;22;19946;-74
2023/04/11 18:17:49;;;;;;;;;;;15.00;80.30;;;;;;6248055;22;19914;-72
2023/04/11 18:20:16;;;;;;;;;;;15.00;80.60;;;;;;6247559;22;19919;-74
2023/04/11 18:22:44;;;;;;;;;;;15.00;80.60;;;;;;6248606;22;19962;-75
2023/04/11 18:25:11;;;;;;;;;;;14.90;80.60;;;;;;6248587;22;19903;-75
2023/04/11 18:27:38;;;;;;;;;;;14.80;80.70;;;;;;6275951;22;19903;-72
2023/04/11 18:30:06;;;;;;;;;;;14.80;80.80;;;;;;6249219;22;19903;-74
2023/04/11 18:32:36;;;;;;;;;;;14.80;80.70;;;;;;6249631;22;20326;-72
2023/04/11 18:35:03;;;;;;;;;;;14.80;80.80;;;;;;6276179;22;20314;-72
2023/04/11 18:37:30;;;;;;;;;;;14.80;80.90;;;;;;6275337;22;20377;-72
2023/04/11 18:39:57;;;;;;;;;;;14.80;81.10;;;;;;6276446;22;19903;-74
2023/04/11 18:42:24;;;;;;;;;;;14.70;81.30;;;;;;6274116;22;19903;-74
2023/04/11 18:44:51;;;;;;;;;;;14.70;81.50;;;;;;6275019;22;19912;-74
2023/04/11 18:47:17;;;;;;;;;;;14.70;81.70;;;;;;6247748;22;20353;-74
2023/04/11 18:49:44;;;;;;;;;;;14.70;81.80;;;;;;6275200;22;19903;-75
2023/04/11 18:52:11;;;;;;;;;;;14.70;82.00;;;;;;6248977;22;19930;-75
2023/04/11 18:54:38;;;;;;;;;;;14.70;82.20;;;;;;6248426;22;19903;-74
2023/04/11 18:57:05;;;;;;;;;;;14.70;82.60;;;;;;6248491;22;19915;-74
2023/04/11 18:59:32;;;;;;;;;;;14.60;82.40;;;;;;6249320;22;20286;-74
2023/04/11 19:01:59;;;;;;;;;;;14.60;82.60;;;;;;6276225;22;19910;-74
2023/04/11 19:04:26;;;;;;;;;;;14.60;82.60;;;;;;6275252;22;20101;-74
2023/04/11 19:06:52;;;;;;;;;;;14.50;82.80;;;;;;6275974;22;19907;-74
2023/04/11 19:09:19;;;;;;;;;;;14.60;82.90;;;;;;6274564;22;19903;-74
2023/04/11 19:11:46;;;;;;;;;;;14.60;82.70;;;;;;6248821;22;19950;-75
2023/04/11 19:14:13;;;;;;;;;;;14.60;82.70;;;;;;6275449;22;19904;-74
2023/04/11 19:16:42;;;;;;;;;;;14.60;82.70;;;;;;6275732;22;19998;-74
2023/04/11 19:19:09;;;;;;;;;;;14.60;82.80;;;;;;6249807;22;19904;-74
2023/04/11 19:21:36;;;;;;;;;;;14.50;83.00;;;;;;6276555;22;19922;-74
2023/04/11 19:24:04;;;;;;;;;;;14.50;83.00;;;;;;6276493;22;19981;-75
2023/04/11 19:26:31;;;;;;;;;;;14.50;83.20;;;;;;6276704;22;19907;-74
2023/04/11 19:28:58;;;;;;;;;;;14.50;83.30;;;;;;6275947;22;19934;-74
2023/04/11 19:31:24;;;;;;;;;;;14.50;83.50;;;;;;6276267;22;19986;-74
2023/04/11 19:33:51;;;;;;;;;;;14.50;83.80;;;;;;6249365;22;19911;-74
2023/04/11 19:36:18;;;;;;;;;;;14.50;84.10;;;;;;6276166;22;19919;-75
